sensor_id;sensor_type;location;lat;lon;timestamp;pressure;altitude;pressure_sealevel;temperature;humidity
33422;BME280;19763;55.798;37.782;2023-08-01T00:00:51;38838.47;;;-145.63;54.84
33422;BME280;19763;55.798;37.782;2023-08-01T00:03:16;38838.47;;;-145.63;55.03
33422;BME280;19763;55.798;37.782;2023-08-01T00:05:42;38893.22;;;-145.63;55.06
33422;BME280;19763;55.798;37.782;2023-08-01T00:08:11;38815.00;;;-145.63;54.88
33422;BME280;19763;55.798;37.782;2023-08-01T00:10:40;38848.25;;;-145.63;55.01
33422;BME280;19763;55.798;37.782;2023-08-01T00:13:07;38879.53;;;-145.63;54.84
33422;BME280;19763;55.798;37.782;2023-08-01T00:15:33;38826.72;;;-145.63;54.76
33422;BME280;19763;55.798;37.782;2023-08-01T00:17:59;38873.66;;;-145.63;54.91
33422;BME280;19763;55.798;37.782;2023-08-01T00:20:24;38871.72;;;-145.63;54.86
33422;BME280;19763;55.798;37.782;2023-08-01T00:22:50;38858.03;;;-145.63;54.97
33422;BME280;19763;55.798;37.782;2023-08-01T00:25:17;38840.44;;;-145.63;54.99
33422;BME280;19763;55.798;37.782;2023-08-01T00:27:44;38867.81;;;-145.63;55.22
33422;BME280;19763;55.798;37.782;2023-08-01T00:30:10;38879.53;;;-145.63;55.16
33422;BME280;19763;55.798;37.782;2023-08-01T00:32:37;38846.28;;;-145.63;54.97
33422;BME280;19763;55.798;37.782;2023-08-01T00:35:03;38863.88;;;-145.63;55.10
33422;BME280;19763;55.798;37.782;2023-08-01T00:37:29;38840.44;;;-145.63;55.02
33422;BME280;19763;55.798;37.782;2023-08-01T00:39:55;38863.88;;;-145.63;55.12
33422;BME280;19763;55.798;37.782;2023-08-01T00:42:21;38859.97;;;-145.63;55.06
33422;BME280;19763;55.798;37.782;2023-08-01T00:44:46;38871.72;;;-145.63;55.39
33422;BME280;19763;55.798;37.782;2023-08-01T00:47:14;38879.53;;;-145.63;55.43
33422;BME280;19763;55.798;37.782;2023-08-01T00:49:40;38877.56;;;-145.63;55.59
33422;BME280;19763;55.798;37.782;2023-08-01T00:52:07;38873.66;;;-145.63;55.48
33422;BME280;19763;55.798;37.782;2023-08-01T00:54:34;38869.75;;;-145.63;55.24
33422;BME280;19763;55.798;37.782;2023-08-01T00:57:03;38852.16;;;-145.63;55.32
33422;BME280;19763;55.798;37.782;2023-08-01T00:59:29;38879.53;;;-145.63;55.55
33422;BME280;19763;55.798;37.782;2023-08-01T01:01:55;38875.63;;;-145.63;55.42
33422;BME280;19763;55.798;37.782;2023-08-01T01:04:21;38901.03;;;-145.63;55.20
33422;BME280;19763;55.798;37.782;2023-08-01T01:06:54;38889.31;;;-145.63;55.45
33422;BME280;19763;55.798;37.782;2023-08-01T01:09:22;38895.19;;;-145.63;55.89
33422;BME280;19763;55.798;37.782;2023-08-01T01:11:48;38701.59;;;-145.63;55.55
33422;BME280;19763;55.798;37.782;2023-08-01T01:14:14;38942.13;;;-145.63;55.52
33422;BME280;19763;55.798;37.782;2023-08-01T01:16:40;38903.00;;;-145.63;55.35
33422;BME280;19763;55.798;37.782;2023-08-01T01:19:08;38889.31;;;-145.63;55.36
33422;BME280;19763;55.798;37.782;2023-08-01T01:21:38;38912.78;;;-145.63;55.72
33422;BME280;19763;55.798;37.782;2023-08-01T01:24:06;38869.75;;;-145.63;55.66
33422;BME280;19763;55.798;37.782;2023-08-01T01:26:33;38893.22;;;-145.63;55.65
33422;BME280;19763;55.798;37.782;2023-08-01T01:29:00;38887.34;;;-145.63;55.49
33422;BME280;19763;55.798;37.782;2023-08-01T01:31:27;38871.72;;;-145.63;55.67
33422;BME280;19763;55.798;37.782;2023-08-01T01:33:54;38903.00;;;-145.63;55.68
33422;BME280;19763;55.798;37.782;2023-08-01T01:36:20;38904.97;;;-145.63;55.61
33422;BME280;19763;55.798;37.782;2023-08-01T01:38:46;38672.25;;;-145.63;55.95
33422;BME280;19763;55.798;37.782;2023-08-01T01:41:11;38893.22;;;-145.63;55.77
33422;BME280;19763;55.798;37.782;2023-08-01T01:43:37;38926.47;;;-145.63;55.88
33422;BME280;19763;55.798;37.782;2023-08-01T01:46:03;38891.28;;;-145.63;55.99
33422;BME280;19763;55.798;37.782;2023-08-01T01:48:29;38895.19;;;-145.63;55.56
33422;BME280;19763;55.798;37.782;2023-08-01T01:50:55;38899.09;;;-145.63;55.78
33422;BME280;19763;55.798;37.782;2023-08-01T01:53:21;38908.88;;;-145.63;55.67
33422;BME280;19763;55.798;37.782;2023-08-01T01:55:46;38903.00;;;-145.63;55.89
33422;BME280;19763;55.798;37.782;2023-08-01T01:58:12;38891.28;;;-145.63;55.82
33422;BME280;19763;55.798;37.782;2023-08-01T02:00:37;38940.16;;;-145.63;55.84
33422;BME280;19763;55.798;37.782;2023-08-01T02:03:03;38901.03;;;-145.63;56.05
33422;BME280;19763;55.798;37.782;2023-08-01T02:05:29;38903.00;;;-145.63;56.15
33422;BME280;19763;55.798;37.782;2023-08-01T02:07:55;38906.91;;;-145.63;55.97
33422;BME280;19763;55.798;37.782;2023-08-01T02:10:21;38885.41;;;-145.63;55.84
33422;BME280;19763;55.798;37.782;2023-08-01T02:12:47;38918.66;;;-145.63;56.23
33422;BME280;19763;55.798;37.782;2023-08-01T02:15:12;38934.28;;;-145.63;56.07
33422;BME280;19763;55.798;37.782;2023-08-01T02:17:39;38920.59;;;-145.63;56.25
33422;BME280;19763;55.798;37.782;2023-08-01T02:20:25;38953.84;;;-145.63;56.32
33422;BME280;19763;55.798;37.782;2023-08-01T02:22:51;38940.16;;;-145.63;56.04
33422;BME280;19763;55.798;37.782;2023-08-01T02:25:17;38922.56;;;-145.63;56.41
33422;BME280;19763;55.798;37.782;2023-08-01T02:27:43;38920.59;;;-145.63;56.10
33422;BME280;19763;55.798;37.782;2023-08-01T02:30:09;38936.25;;;-145.63;56.63
33422;BME280;19763;55.798;37.782;2023-08-01T02:32:35;38918.66;;;-145.63;56.53
33422;BME280;19763;55.798;37.782;2023-08-01T02:35:02;38906.91;;;-145.63;56.84
33422;BME280;19763;55.798;37.782;2023-08-01T02:37:31;38910.81;;;-145.63;56.24
33422;BME280;19763;55.798;37.782;2023-08-01T02:39:57;38926.47;;;-145.63;56.49
33422;BME280;19763;55.798;37.782;2023-08-01T02:42:23;38899.09;;;-145.63;56.36
33422;BME280;19763;55.798;37.782;2023-08-01T02:44:48;38949.94;;;-145.63;56.47
33422;BME280;19763;55.798;37.782;2023-08-01T02:47:14;38899.09;;;-145.63;56.46
33422;BME280;19763;55.798;37.782;2023-08-01T02:49:40;38934.28;;;-145.63;56.12
33422;BME280;19763;55.798;37.782;2023-08-01T02:52:05;38918.66;;;-145.63;56.13
33422;BME280;19763;55.798;37.782;2023-08-01T02:54:31;38869.75;;;-145.63;56.34
33422;BME280;19763;55.798;37.782;2023-08-01T02:56:57;38858.03;;;-145.63;56.07
33422;BME280;19763;55.798;37.782;2023-08-01T02:59:22;38897.13;;;-145.63;56.53
33422;BME280;19763;55.798;37.782;2023-08-01T03:01:49;38885.41;;;-145.63;56.34
33422;BME280;19763;55.798;37.782;2023-08-01T03:04:15;38883.44;;;-145.63;56.55
33422;BME280;19763;55.798;37.782;2023-08-01T03:06:40;38840.44;;;-145.63;56.32
33422;BME280;19763;55.798;37.782;2023-08-01T03:09:06;38899.09;;;-145.63;56.28
33422;BME280;19763;55.798;37.782;2023-08-01T03:11:37;38889.31;;;-145.63;56.47
33422;BME280;19763;55.798;37.782;2023-08-01T03:14:03;38897.13;;;-145.63;56.15
33422;BME280;19763;55.798;37.782;2023-08-01T03:16:32;38842.38;;;-145.63;56.40
33422;BME280;19763;55.798;37.782;2023-08-01T03:18:58;38842.38;;;-145.63;56.06
33422;BME280;19763;55.798;37.782;2023-08-01T03:21:32;38867.81;;;-145.63;55.89
33422;BME280;19763;55.798;37.782;2023-08-01T03:23:57;38856.06;;;-145.63;55.95
33422;BME280;19763;55.798;37.782;2023-08-01T03:26:23;38805.22;;;-145.63;55.84
33422;BME280;19763;55.798;37.782;2023-08-01T03:28:49;38836.50;;;-145.63;55.63
33422;BME280;19763;55.798;37.782;2023-08-01T03:31:14;38813.03;;;-145.63;55.78
33422;BME280;19763;55.798;37.782;2023-08-01T03:33:40;38836.50;;;-145.63;55.78
33422;BME280;19763;55.798;37.782;2023-08-01T03:36:06;38779.81;;;-145.63;55.51
33422;BME280;19763;55.798;37.782;2023-08-01T03:38:32;38787.63;;;-145.63;55.59
33422;BME280;19763;55.798;37.782;2023-08-01T03:40:57;38771.97;;;-145.63;55.26
33422;BME280;19763;55.798;37.782;2023-08-01T03:43:23;38807.19;;;-145.63;55.20
33422;BME280;19763;55.798;37.782;2023-08-01T03:45:50;38766.13;;;-145.63;55.51
33422;BME280;19763;55.798;37.782;2023-08-01T03:48:16;38760.25;;;-145.63;55.14
33422;BME280;19763;55.798;37.782;2023-08-01T03:50:42;38756.34;;;-145.63;54.73
33422;BME280;19763;55.798;37.782;2023-08-01T03:53:08;38674.22;;;-145.63;54.22
33422;BME280;19763;55.798;37.782;2023-08-01T03:55:33;38640.97;;;-145.63;52.77
33422;BME280;19763;55.798;37.782;2023-08-01T03:57:59;38629.22;;;-145.63;53.40
33422;BME280;19763;55.798;37.782;2023-08-01T04:00:24;38613.59;;;-145.63;53.23
33422;BME280;19763;55.798;37.782;2023-08-01T04:02:50;38566.66;;;-145.63;53.33
33422;BME280;19763;55.798;37.782;2023-08-01T04:05:16;38592.09;;;-145.63;53.13
33422;BME280;19763;55.798;37.782;2023-08-01T04:07:42;38607.72;;;-145.63;52.21
33422;BME280;19763;55.798;37.782;2023-08-01T04:10:08;38594.03;;;-145.63;51.27
33422;BME280;19763;55.798;37.782;2023-08-01T04:12:34;38566.66;;;-145.63;52.03
33422;BME280;19763;55.798;37.782;2023-08-01T04:15:00;38603.81;;;-145.63;51.87
33422;BME280;19763;55.798;37.782;2023-08-01T04:17:26;38592.09;;;-145.63;51.29
33422;BME280;19763;55.798;37.782;2023-08-01T04:19:52;38582.31;;;-145.63;50.68
33422;BME280;19763;55.798;37.782;2023-08-01T04:22:18;38525.59;;;-145.63;50.69
33422;BME280;19763;55.798;37.782;2023-08-01T04:24:44;38537.34;;;-145.63;50.51
33422;BME280;19763;55.798;37.782;2023-08-01T04:27:10;38556.88;;;-145.63;49.48
33422;BME280;19763;55.798;37.782;2023-08-01T04:29:35;38574.47;;;-145.63;49.29
33422;BME280;19763;55.798;37.782;2023-08-01T04:32:01;38535.38;;;-145.63;49.02
33422;BME280;19763;55.798;37.782;2023-08-01T04:34:27;38525.59;;;-145.63;49.17
33422;BME280;19763;55.798;37.782;2023-08-01T04:36:52;38521.69;;;-145.63;48.93
33422;BME280;19763;55.798;37.782;2023-08-01T04:39:18;38511.91;;;-145.63;49.29
33422;BME280;19763;55.798;37.782;2023-08-01T04:41:44;38468.91;;;-145.63;48.99
33422;BME280;19763;55.798;37.782;2023-08-01T04:44:10;38484.53;;;-145.63;48.99
33422;BME280;19763;55.798;37.782;2023-08-01T04:46:35;38509.97;;;-145.63;48.74
33422;BME280;19763;55.798;37.782;2023-08-01T04:49:01;38441.53;;;-145.63;48.52
33422;BME280;19763;55.798;37.782;2023-08-01T04:51:27;38453.25;;;-145.63;48.73
33422;BME280;19763;55.798;37.782;2023-08-01T04:53:53;38441.53;;;-145.63;48.02
33422;BME280;19763;55.798;37.782;2023-08-01T04:56:18;38390.69;;;-145.63;47.55
33422;BME280;19763;55.798;37.782;2023-08-01T04:58:44;38402.41;;;-145.63;47.05
33422;BME280;19763;55.798;37.782;2023-08-01T05:01:10;38390.69;;;-145.63;47.05
33422;BME280;19763;55.798;37.782;2023-08-01T05:03:35;38386.78;;;-145.63;46.76
33422;BME280;19763;55.798;37.782;2023-08-01T05:06:01;38365.25;;;-145.63;46.85
33422;BME280;19763;55.798;37.782;2023-08-01T05:08:27;38347.66;;;-145.63;46.67
33422;BME280;19763;55.798;37.782;2023-08-01T05:10:52;38294.88;;;-145.63;46.11
33422;BME280;19763;55.798;37.782;2023-08-01T05:13:18;38308.56;;;-145.63;45.38
33422;BME280;19763;55.798;37.782;2023-08-01T05:15:45;38273.38;;;-145.63;46.20
33422;BME280;19763;55.798;37.782;2023-08-01T05:18:14;38230.34;;;-145.63;43.70
33422;BME280;19763;55.798;37.782;2023-08-01T05:20:40;38240.13;;;-145.63;44.99
33422;BME280;19763;55.798;37.782;2023-08-01T05:23:05;38187.34;;;-145.63;44.94
33422;BME280;19763;55.798;37.782;2023-08-01T05:25:31;38214.72;;;-145.63;44.94
33422;BME280;19763;55.798;37.782;2023-08-01T05:27:56;38238.16;;;-145.63;42.83
33422;BME280;19763;55.798;37.782;2023-08-01T05:30:23;38185.38;;;-145.63;42.55
33422;BME280;19763;55.798;37.782;2023-08-01T05:32:49;38201.03;;;-145.63;42.35
33422;BME280;19763;55.798;37.782;2023-08-01T05:35:14;38208.84;;;-145.63;42.31
33422;BME280;19763;55.798;37.782;2023-08-01T05:37:40;38132.59;;;-145.63;41.17
33422;BME280;19763;55.798;37.782;2023-08-01T05:40:06;38089.56;;;-145.63;41.31
33422;BME280;19763;55.798;37.782;2023-08-01T05:42:32;38011.38;;;-145.63;41.30
33422;BME280;19763;55.798;37.782;2023-08-01T05:44:58;37991.81;;;-145.63;40.92
33422;BME280;19763;55.798;37.782;2023-08-01T05:47:24;37987.91;;;-145.63;41.61
33422;BME280;19763;55.798;37.782;2023-08-01T05:49:49;37954.69;;;-145.63;39.27
33422;BME280;19763;55.798;37.782;2023-08-01T05:52:15;37933.16;;;-145.63;41.29
33422;BME280;19763;55.798;37.782;2023-08-01T05:54:41;37944.91;;;-145.63;41.01
33422;BME280;19763;55.798;37.782;2023-08-01T05:57:07;37964.44;;;-145.63;41.20
33422;BME280;19763;55.798;37.782;2023-08-01T05:59:33;37964.44;;;-145.63;40.96
33422;BME280;19763;55.798;37.782;2023-08-01T06:01:59;37989.88;;;-145.63;41.25
33422;BME280;19763;55.798;37.782;2023-08-01T06:04:25;38003.56;;;-145.63;41.43
33422;BME280;19763;55.798;37.782;2023-08-01T06:06:50;37995.72;;;-145.63;41.51
33422;BME280;19763;55.798;37.782;2023-08-01T06:09:16;37999.66;;;-145.63;41.31
33422;BME280;19763;55.798;37.782;2023-08-01T06:11:42;37970.31;;;-145.63;41.57
33422;BME280;19763;55.798;37.782;2023-08-01T06:14:09;37923.41;;;-145.63;40.77
33422;BME280;19763;55.798;37.782;2023-08-01T06:16:35;37939.03;;;-145.63;39.05
33422;BME280;19763;55.798;37.782;2023-08-01T06:19:00;37929.25;;;-145.63;40.15
33422;BME280;19763;55.798;37.782;2023-08-01T06:21:27;37958.59;;;-145.63;39.69
33422;BME280;19763;55.798;37.782;2023-08-01T06:23:52;37888.22;;;-145.63;40.02
33422;BME280;19763;55.798;37.782;2023-08-01T06:26:18;37982.03;;;-145.63;38.71
33422;BME280;19763;55.798;37.782;2023-08-01T06:28:44;37909.72;;;-145.63;37.74
33422;BME280;19763;55.798;37.782;2023-08-01T06:31:09;37884.28;;;-145.63;38.31
33422;BME280;19763;55.798;37.782;2023-08-01T06:33:35;37882.34;;;-145.63;38.49
33422;BME280;19763;55.798;37.782;2023-08-01T06:36:01;37903.84;;;-145.63;37.91
33422;BME280;19763;55.798;37.782;2023-08-01T06:38:26;37876.47;;;-145.63;38.50
33422;BME280;19763;55.798;37.782;2023-08-01T06:40:52;37851.06;;;-145.63;38.50
33422;BME280;19763;55.798;37.782;2023-08-01T06:43:18;37847.16;;;-145.63;38.64
33422;BME280;19763;55.798;37.782;2023-08-01T06:45:44;37847.16;;;-145.63;37.78
33422;BME280;19763;55.798;37.782;2023-08-01T06:48:09;37786.53;;;-145.63;38.54
33422;BME280;19763;55.798;37.782;2023-08-01T06:50:35;37806.09;;;-145.63;37.99
33422;BME280;19763;55.798;37.782;2023-08-01T06:53:01;37853.00;;;-145.63;37.96
33422;BME280;19763;55.798;37.782;2023-08-01T06:55:27;37862.78;;;-145.63;37.52
33422;BME280;19763;55.798;37.782;2023-08-01T06:57:52;37878.44;;;-145.63;37.34
33422;BME280;19763;55.798;37.782;2023-08-01T07:00:18;37851.06;;;-145.63;36.74
33422;BME280;19763;55.798;37.782;2023-08-01T07:02:44;37839.31;;;-145.63;37.14
33422;BME280;19763;55.798;37.782;2023-08-01T07:05:10;37815.88;;;-145.63;36.29
33422;BME280;19763;55.798;37.782;2023-08-01T07:07:35;37772.84;;;-145.63;36.93
33422;BME280;19763;55.798;37.782;2023-08-01T07:10:01;37735.72;;;-145.63;37.07
33422;BME280;19763;55.798;37.782;2023-08-01T07:12:30;37772.84;;;-145.63;37.44
33422;BME280;19763;55.798;37.782;2023-08-01T07:14:55;37735.72;;;-145.63;34.37
33422;BME280;19763;55.798;37.782;2023-08-01T07:17:21;37819.78;;;-145.63;35.65
33422;BME280;19763;55.798;37.782;2023-08-01T07:19:47;37788.50;;;-145.63;34.91
33422;BME280;19763;55.798;37.782;2023-08-01T07:22:12;37841.28;;;-145.63;35.38
33422;BME280;19763;55.798;37.782;2023-08-01T07:24:38;37761.13;;;-145.63;36.28
33422;BME280;19763;55.798;37.782;2023-08-01T07:27:04;37737.66;;;-145.63;36.63
33422;BME280;19763;55.798;37.782;2023-08-01T07:29:30;37682.94;;;-145.63;36.76
33422;BME280;19763;55.798;37.782;2023-08-01T07:31:56;37686.84;;;-145.63;36.00
33422;BME280;19763;55.798;37.782;2023-08-01T07:34:21;37694.66;;;-145.63;35.71
33422;BME280;19763;55.798;37.782;2023-08-01T07:36:48;37741.56;;;-145.63;36.00
33422;BME280;19763;55.798;37.782;2023-08-01T07:39:15;37475.72;;;-145.63;35.81
33422;BME280;19763;55.798;37.782;2023-08-01T07:41:41;37667.28;;;-145.63;35.64
33422;BME280;19763;55.798;37.782;2023-08-01T07:44:06;37628.19;;;-145.63;35.02
33422;BME280;19763;55.798;37.782;2023-08-01T07:46:32;37579.31;;;-145.63;34.24
33422;BME280;19763;55.798;37.782;2023-08-01T07:48:58;37675.09;;;-145.63;34.01
33422;BME280;19763;55.798;37.782;2023-08-01T07:51:27;37710.31;;;-145.63;33.40
33422;BME280;19763;55.798;37.782;2023-08-01T07:53:53;37720.06;;;-145.63;35.25
33422;BME280;19763;55.798;37.782;2023-08-01T07:56:19;37665.34;;;-145.63;34.25
33422;BME280;19763;55.798;37.782;2023-08-01T07:58:45;37606.69;;;-145.63;33.97
33422;BME280;19763;55.798;37.782;2023-08-01T08:01:11;37585.19;;;-145.63;33.88
33422;BME280;19763;55.798;37.782;2023-08-01T08:03:37;37659.47;;;-145.63;32.74
33422;BME280;19763;55.798;37.782;2023-08-01T08:06:03;37583.22;;;-145.63;34.23
33422;BME280;19763;55.798;37.782;2023-08-01T08:08:30;37522.63;;;-145.63;33.69
33422;BME280;19763;55.798;37.782;2023-08-01T08:10:55;37516.75;;;-145.63;32.94
33422;BME280;19763;55.798;37.782;2023-08-01T08:13:21;37553.91;;;-145.63;32.66
33422;BME280;19763;55.798;37.782;2023-08-01T08:15:47;37577.38;;;-145.63;31.66
33422;BME280;19763;55.798;37.782;2023-08-01T08:18:13;37542.19;;;-145.63;31.57
33422;BME280;19763;55.798;37.782;2023-08-01T08:20:43;37585.19;;;-145.63;31.64
33422;BME280;19763;55.798;37.782;2023-08-01T08:23:10;37583.22;;;-145.63;32.68
33422;BME280;19763;55.798;37.782;2023-08-01T08:25:36;37616.47;;;-145.63;32.17
33422;BME280;19763;55.798;37.782;2023-08-01T08:28:03;37585.19;;;-145.63;32.18
33422;BME280;19763;55.798;37.782;2023-08-01T08:30:28;37589.09;;;-145.63;32.45
33422;BME280;19763;55.798;37.782;2023-08-01T08:32:54;37565.63;;;-145.63;32.83
33422;BME280;19763;55.798;37.782;2023-08-01T08:35:20;37563.69;;;-145.63;32.98
33422;BME280;19763;55.798;37.782;2023-08-01T08:37:45;37487.44;;;-145.63;33.88
33422;BME280;19763;55.798;37.782;2023-08-01T08:40:12;37454.22;;;-145.63;33.25
33422;BME280;19763;55.798;37.782;2023-08-01T08:42:38;37432.72;;;-145.63;34.07
33422;BME280;19763;55.798;37.782;2023-08-01T08:45:06;37446.38;;;-145.63;32.60
33422;BME280;19763;55.798;37.782;2023-08-01T08:47:36;37364.28;;;-145.63;33.52
33422;BME280;19763;55.798;37.782;2023-08-01T08:50:02;37419.03;;;-145.63;33.32
33422;BME280;19763;55.798;37.782;2023-08-01T08:52:29;37463.97;;;-145.63;33.72
33422;BME280;19763;55.798;37.782;2023-08-01T08:54:55;37479.63;;;-145.63;32.79
33422;BME280;19763;55.798;37.782;2023-08-01T08:57:22;37487.44;;;-145.63;33.33
33422;BME280;19763;55.798;37.782;2023-08-01T08:59:48;37522.63;;;-145.63;33.68
33422;BME280;19763;55.798;37.782;2023-08-01T09:02:15;37424.88;;;-145.63;34.02
33422;BME280;19763;55.798;37.782;2023-08-01T09:04:42;37491.34;;;-145.63;33.74
33422;BME280;19763;55.798;37.782;2023-08-01T09:07:09;37516.75;;;-145.63;33.60
33422;BME280;19763;55.798;37.782;2023-08-01T09:09:36;37575.41;;;-145.63;34.62
33422;BME280;19763;55.798;37.782;2023-08-01T09:12:03;37534.34;;;-145.63;34.10
33422;BME280;19763;55.798;37.782;2023-08-01T09:14:29;37497.22;;;-145.63;33.31
33422;BME280;19763;55.798;37.782;2023-08-01T09:16:55;37514.81;;;-145.63;33.74
33422;BME280;19763;55.798;37.782;2023-08-01T09:19:23;37596.91;;;-145.63;33.97
33422;BME280;19763;55.798;37.782;2023-08-01T09:21:49;37575.41;;;-145.63;34.50
33422;BME280;19763;55.798;37.782;2023-08-01T09:24:20;37598.88;;;-145.63;34.46
33422;BME280;19763;55.798;37.782;2023-08-01T09:26:48;37594.97;;;-145.63;34.49
33422;BME280;19763;55.798;37.782;2023-08-01T09:29:16;37440.53;;;-145.63;34.19
33422;BME280;19763;55.798;37.782;2023-08-01T09:31:42;37589.09;;;-145.63;34.80
33422;BME280;19763;55.798;37.782;2023-08-01T09:34:23;37585.19;;;-145.63;33.77
33422;BME280;19763;55.798;37.782;2023-08-01T09:36:49;37565.63;;;-145.63;34.28
33422;BME280;19763;55.798;37.782;2023-08-01T09:39:17;37550.00;;;-145.63;33.36
33422;BME280;19763;55.798;37.782;2023-08-01T09:41:43;37565.63;;;-145.63;32.87
33422;BME280;19763;55.798;37.782;2023-08-01T09:44:16;37471.81;;;-145.63;33.94
33422;BME280;19763;55.798;37.782;2023-08-01T09:46:42;37452.25;;;-145.63;31.86
33422;BME280;19763;55.798;37.782;2023-08-01T09:49:12;37368.19;;;-145.63;32.40
33422;BME280;19763;55.798;37.782;2023-08-01T09:51:48;37397.53;;;-145.63;31.32
33422;BME280;19763;55.798;37.782;2023-08-01T09:54:15;36996.81;;;-145.63;31.47
33422;BME280;19763;55.798;37.782;2023-08-01T09:56:44;36936.22;;;-145.63;30.99
33422;BME280;19763;55.798;37.782;2023-08-01T09:59:11;37475.72;;;-145.63;32.05
33422;BME280;19763;55.798;37.782;2023-08-01T10:01:38;37456.16;;;-145.63;33.18
33422;BME280;19763;55.798;37.782;2023-08-01T10:04:07;37479.63;;;-145.63;32.83
33422;BME280;19763;55.798;37.782;2023-08-01T10:06:37;37510.91;;;-145.63;32.49
33422;BME280;19763;55.798;37.782;2023-08-01T10:09:04;37430.75;;;-145.63;32.88
33422;BME280;19763;55.798;37.782;2023-08-01T10:11:33;37450.31;;;-145.63;32.31
33422;BME280;19763;55.798;37.782;2023-08-01T10:14:00;37440.53;;;-145.63;32.36
33422;BME280;19763;55.798;37.782;2023-08-01T10:16:28;37512.84;;;-145.63;32.63
33422;BME280;19763;55.798;37.782;2023-08-01T10:18:54;37434.66;;;-145.63;33.85
33422;BME280;19763;55.798;37.782;2023-08-01T10:21:20;37419.03;;;-145.63;34.23
33422;BME280;19763;55.798;37.782;2023-08-01T10:23:47;37419.03;;;-145.63;33.10
33422;BME280;19763;55.798;37.782;2023-08-01T10:26:13;37432.72;;;-145.63;32.96
33422;BME280;19763;55.798;37.782;2023-08-01T10:28:41;37436.63;;;-145.63;33.10
33422;BME280;19763;55.798;37.782;2023-08-01T10:31:15;37403.38;;;-145.63;33.55
33422;BME280;19763;55.798;37.782;2023-08-01T10:33:46;37465.94;;;-145.63;32.99
33422;BME280;19763;55.798;37.782;2023-08-01T10:36:16;37426.84;;;-145.63;33.14
33422;BME280;19763;55.798;37.782;2023-08-01T10:41:33;37489.41;;;-145.63;33.30
33422;BME280;19763;55.798;37.782;2023-08-01T10:44:15;37454.22;;;-145.63;32.53
33422;BME280;19763;55.798;37.782;2023-08-01T10:46:55;37458.13;;;-145.63;33.10
33422;BME280;19763;55.798;37.782;2023-08-01T10:49:33;37491.34;;;-145.63;34.00
33422;BME280;19763;55.798;37.782;2023-08-01T10:52:00;37434.66;;;-145.63;34.62
33422;BME280;19763;55.798;37.782;2023-08-01T10:54:26;37395.56;;;-145.63;32.34
33422;BME280;19763;55.798;37.782;2023-08-01T10:56:58;37366.25;;;-145.63;33.92
33422;BME280;19763;55.798;37.782;2023-08-01T10:59:24;37377.97;;;-145.63;33.37
33422;BME280;19763;55.798;37.782;2023-08-01T11:01:53;37123.84;;;-145.63;32.23
33422;BME280;19763;55.798;37.782;2023-08-01T11:04:21;37424.88;;;-145.63;32.20
33422;BME280;19763;55.798;37.782;2023-08-01T11:06:52;37397.53;;;-145.63;31.66
33422;BME280;19763;55.798;37.782;2023-08-01T11:09:20;37348.66;;;-145.63;32.08
33422;BME280;19763;55.798;37.782;2023-08-01T11:11:51;37311.50;;;-145.63;34.00
33422;BME280;19763;55.798;37.782;2023-08-01T11:14:19;36852.16;;;-145.63;32.00
33422;BME280;19763;55.798;37.782;2023-08-01T11:16:46;37350.59;;;-145.63;32.31
33422;BME280;19763;55.798;37.782;2023-08-01T11:19:29;37360.38;;;-145.63;31.78
33422;BME280;19763;55.798;37.782;2023-08-01T11:21:57;37469.84;;;-145.63;32.07
33422;BME280;19763;55.798;37.782;2023-08-01T11:24:24;37424.88;;;-145.63;32.04
33422;BME280;19763;55.798;37.782;2023-08-01T11:26:51;37448.34;;;-145.63;32.51
33422;BME280;19763;55.798;37.782;2023-08-01T11:29:19;37463.97;;;-145.63;31.82
33422;BME280;19763;55.798;37.782;2023-08-01T11:31:58;37483.53;;;-145.63;32.29
33422;BME280;19763;55.798;37.782;2023-08-01T11:34:24;37534.34;;;-145.63;32.46
33422;BME280;19763;55.798;37.782;2023-08-01T11:36:50;37499.16;;;-145.63;32.89
33422;BME280;19763;55.798;37.782;2023-08-01T11:39:16;37561.72;;;-145.63;32.29
33422;BME280;19763;55.798;37.782;2023-08-01T11:41:43;37565.63;;;-145.63;32.46
33422;BME280;19763;55.798;37.782;2023-08-01T11:44:10;37534.34;;;-145.63;32.58
33422;BME280;19763;55.798;37.782;2023-08-01T11:46:38;37532.41;;;-145.63;32.56
33422;BME280;19763;55.798;37.782;2023-08-01T11:49:06;37544.13;;;-145.63;32.00
33422;BME280;19763;55.798;37.782;2023-08-01T11:51:41;37567.59;;;-145.63;33.70
33422;BME280;19763;55.798;37.782;2023-08-01T11:54:08;37598.88;;;-145.63;32.05
33422;BME280;19763;55.798;37.782;2023-08-01T11:56:37;37589.09;;;-145.63;32.64
33422;BME280;19763;55.798;37.782;2023-08-01T11:59:15;37540.22;;;-145.63;32.13
33422;BME280;19763;55.798;37.782;2023-08-01T12:01:46;37493.31;;;-145.63;32.18
33422;BME280;19763;55.798;37.782;2023-08-01T12:04:23;37501.13;;;-145.63;32.90
33422;BME280;19763;55.798;37.782;2023-08-01T12:06:49;37518.72;;;-145.63;33.12
33422;BME280;19763;55.798;37.782;2023-08-01T12:09:14;37557.81;;;-145.63;33.12
33422;BME280;19763;55.798;37.782;2023-08-01T12:11:41;37534.34;;;-145.63;33.55
33422;BME280;19763;55.798;37.782;2023-08-01T12:14:14;37487.44;;;-145.63;34.53
33422;BME280;19763;55.798;37.782;2023-08-01T12:16:42;37376.00;;;-145.63;33.35
33422;BME280;19763;55.798;37.782;2023-08-01T12:19:10;37442.47;;;-145.63;32.95
33422;BME280;19763;55.798;37.782;2023-08-01T12:21:36;37397.53;;;-145.63;32.29
33422;BME280;19763;55.798;37.782;2023-08-01T12:24:03;37387.75;;;-145.63;31.66
33422;BME280;19763;55.798;37.782;2023-08-01T12:26:29;37419.03;;;-145.63;32.15
33422;BME280;19763;55.798;37.782;2023-08-01T12:28:54;37483.53;;;-145.63;32.10
33422;BME280;19763;55.798;37.782;2023-08-01T12:31:22;37522.63;;;-145.63;31.97